EPKT

Katowice International Airport

Katowice, Poland
METAR EPKT 170530Z 22006KT 1400 R27/1900N SN BR SCT002 BKN009 OVC022 M00/M02 Q1014
Observed Flight Rules
Dec-17 @ 05:30 UTC (40 minutes ago) Instrument Flight Rules
Wind Visibility Clouds Conditions
220° at 6 knots 1,400 meters
  • Scattered at 200' AGL
  • Broken at 900' AGL
  • Overcast at 2,200' AGL
  • Snow
  • Mist
Temperatures Readings
Current 0°C / 32°F
Dewpoint -2°C / 28°F
Humidity 87%
Altimeter 29.94" Hg
Pressure 1014 hPa
Elevation 284
METAR EPKT 170530Z 22006KT 1400 R27/1900N SN BR SCT002 BKN009 OVC022 M00/M02 Q1014
Observed Flight Rules
Dec-17 @ 05:30 UTC
(40 minutes ago)
LIFR
Wind Visibility
220° at 6 knots 1,400 meters
Clouds
  • Scattered at 200' AGL
  • Broken at 900' AGL
  • Overcast at 2,200' AGL
Conditions
  • Snow
  • Mist
Temperature Dewpoint
0°C / 32°F -2°C / 28°F
Humidity Altimeter Pressure
87% 29.94" Hg 1014 hPa